sensor_id;sensor_type;location;lat;lon;timestamp;P1;durP1;ratioP1;P2;durP2;ratioP2
24425;SDS011;12611;44.446;26.000;2022-08-21T00:01:51;12.73;;;4.47;;
24425;SDS011;12611;44.446;26.000;2022-08-21T00:04:21;8.38;;;4.40;;
24425;SDS011;12611;44.446;26.000;2022-08-21T00:06:55;6.75;;;4.32;;
24425;SDS011;12611;44.446;26.000;2022-08-21T00:09:24;5.85;;;4.22;;
24425;SDS011;12611;44.446;26.000;2022-08-21T00:11:53;6.38;;;4.40;;
24425;SDS011;12611;44.446;26.000;2022-08-21T00:14:21;10.18;;;4.47;;
24425;SDS011;12611;44.446;26.000;2022-08-21T00:16:50;6.80;;;4.20;;
24425;SDS011;12611;44.446;26.000;2022-08-21T00:19:24;6.35;;;4.40;;
24425;SDS011;12611;44.446;26.000;2022-08-21T00:21:52;8.18;;;4.50;;
24425;SDS011;12611;44.446;26.000;2022-08-21T00:24:22;6.75;;;4.65;;
24425;SDS011;12611;44.446;26.000;2022-08-21T00:26:51;6.50;;;4.50;;
24425;SDS011;12611;44.446;26.000;2022-08-21T00:29:20;6.70;;;4.15;;
24425;SDS011;12611;44.446;26.000;2022-08-21T00:31:48;8.52;;;4.13;;
24425;SDS011;12611;44.446;26.000;2022-08-21T00:34:17;7.60;;;5.07;;
24425;SDS011;12611;44.446;26.000;2022-08-21T00:36:47;8.40;;;4.88;;
24425;SDS011;12611;44.446;26.000;2022-08-21T00:39:15;8.73;;;5.07;;
24425;SDS011;12611;44.446;26.000;2022-08-21T00:41:44;9.88;;;5.32;;
24425;SDS011;12611;44.446;26.000;2022-08-21T00:44:13;10.55;;;5.13;;
24425;SDS011;12611;44.446;26.000;2022-08-21T00:46:42;7.68;;;4.20;;
24425;SDS011;12611;44.446;26.000;2022-08-21T00:49:11;7.22;;;4.78;;
24425;SDS011;12611;44.446;26.000;2022-08-21T00:51:42;7.78;;;4.60;;
24425;SDS011;12611;44.446;26.000;2022-08-21T00:54:16;8.57;;;4.72;;
24425;SDS011;12611;44.446;26.000;2022-08-21T00:56:48;7.97;;;4.88;;
24425;SDS011;12611;44.446;26.000;2022-08-21T00:59:20;9.13;;;4.32;;
24425;SDS011;12611;44.446;26.000;2022-08-21T01:01:50;11.15;;;4.90;;
24425;SDS011;12611;44.446;26.000;2022-08-21T01:04:19;7.93;;;4.75;;
24425;SDS011;12611;44.446;26.000;2022-08-21T01:06:48;6.88;;;4.13;;
24425;SDS011;12611;44.446;26.000;2022-08-21T01:09:19;10.55;;;4.70;;
24425;SDS011;12611;44.446;26.000;2022-08-21T01:11:48;8.00;;;4.38;;
24425;SDS011;12611;44.446;26.000;2022-08-21T01:14:17;8.18;;;5.05;;
24425;SDS011;12611;44.446;26.000;2022-08-21T01:16:47;7.47;;;4.88;;
24425;SDS011;12611;44.446;26.000;2022-08-21T01:19:20;10.02;;;4.93;;
24425;SDS011;12611;44.446;26.000;2022-08-21T01:21:51;10.38;;;5.03;;
24425;SDS011;12611;44.446;26.000;2022-08-21T01:24:20;10.18;;;5.57;;
24425;SDS011;12611;44.446;26.000;2022-08-21T01:26:49;10.13;;;5.32;;
24425;SDS011;12611;44.446;26.000;2022-08-21T01:29:25;10.05;;;5.40;;
24425;SDS011;12611;44.446;26.000;2022-08-21T01:32:02;8.27;;;4.90;;
24425;SDS011;12611;44.446;26.000;2022-08-21T01:34:32;9.20;;;5.38;;
24425;SDS011;12611;44.446;26.000;2022-08-21T01:37:02;10.23;;;5.55;;
24425;SDS011;12611;44.446;26.000;2022-08-21T01:39:31;11.73;;;5.32;;
24425;SDS011;12611;44.446;26.000;2022-08-21T01:42:01;8.90;;;5.80;;
24425;SDS011;12611;44.446;26.000;2022-08-21T01:44:30;11.77;;;4.93;;
24425;SDS011;12611;44.446;26.000;2022-08-21T01:46:59;12.63;;;6.00;;
24425;SDS011;12611;44.446;26.000;2022-08-21T01:49:28;8.65;;;5.25;;
24425;SDS011;12611;44.446;26.000;2022-08-21T01:51:57;8.55;;;5.32;;
24425;SDS011;12611;44.446;26.000;2022-08-21T01:54:27;8.63;;;5.28;;
24425;SDS011;12611;44.446;26.000;2022-08-21T01:56:56;10.32;;;5.85;;
24425;SDS011;12611;44.446;26.000;2022-08-21T01:59:25;11.45;;;6.03;;
24425;SDS011;12611;44.446;26.000;2022-08-21T02:01:54;10.32;;;5.35;;
24425;SDS011;12611;44.446;26.000;2022-08-21T02:04:23;10.02;;;6.28;;
24425;SDS011;12611;44.446;26.000;2022-08-21T02:06:51;9.55;;;5.85;;
24425;SDS011;12611;44.446;26.000;2022-08-21T02:09:20;10.25;;;6.18;;
24425;SDS011;12611;44.446;26.000;2022-08-21T02:11:51;9.02;;;6.13;;
24425;SDS011;12611;44.446;26.000;2022-08-21T02:14:20;8.73;;;5.90;;
24425;SDS011;12611;44.446;26.000;2022-08-21T02:16:58;10.75;;;5.47;;
24425;SDS011;12611;44.446;26.000;2022-08-21T02:19:35;8.00;;;5.32;;
24425;SDS011;12611;44.446;26.000;2022-08-21T02:22:06;11.38;;;6.05;;
24425;SDS011;12611;44.446;26.000;2022-08-21T02:24:35;9.48;;;5.85;;
24425;SDS011;12611;44.446;26.000;2022-08-21T02:27:22;9.52;;;5.50;;
24425;SDS011;12611;44.446;26.000;2022-08-21T02:29:53;12.50;;;6.30;;
24425;SDS011;12611;44.446;26.000;2022-08-21T02:32:23;9.40;;;5.45;;
24425;SDS011;12611;44.446;26.000;2022-08-21T02:34:52;7.80;;;5.50;;
24425;SDS011;12611;44.446;26.000;2022-08-21T02:37:21;14.43;;;6.32;;
24425;SDS011;12611;44.446;26.000;2022-08-21T02:39:50;11.25;;;6.63;;
24425;SDS011;12611;44.446;26.000;2022-08-21T02:42:18;12.52;;;6.18;;
24425;SDS011;12611;44.446;26.000;2022-08-21T02:44:49;12.50;;;5.85;;
24425;SDS011;12611;44.446;26.000;2022-08-21T02:47:17;9.82;;;5.80;;
24425;SDS011;12611;44.446;26.000;2022-08-21T02:49:46;9.38;;;5.88;;
24425;SDS011;12611;44.446;26.000;2022-08-21T02:52:14;12.00;;;6.95;;
24425;SDS011;12611;44.446;26.000;2022-08-21T02:54:42;10.35;;;5.88;;
24425;SDS011;12611;44.446;26.000;2022-08-21T02:57:11;10.20;;;6.97;;
24425;SDS011;12611;44.446;26.000;2022-08-21T02:59:40;14.30;;;6.15;;
24425;SDS011;12611;44.446;26.000;2022-08-21T03:02:10;10.30;;;6.32;;
24425;SDS011;12611;44.446;26.000;2022-08-21T03:04:39;10.15;;;5.65;;
24425;SDS011;12611;44.446;26.000;2022-08-21T03:07:12;10.05;;;6.50;;
24425;SDS011;12611;44.446;26.000;2022-08-21T03:09:41;12.93;;;6.43;;
24425;SDS011;12611;44.446;26.000;2022-08-21T03:12:21;12.65;;;6.65;;
24425;SDS011;12611;44.446;26.000;2022-08-21T03:14:51;12.00;;;6.13;;
24425;SDS011;12611;44.446;26.000;2022-08-21T03:17:21;10.32;;;6.07;;
24425;SDS011;12611;44.446;26.000;2022-08-21T03:19:55;13.38;;;6.50;;
24425;SDS011;12611;44.446;26.000;2022-08-21T03:22:24;11.85;;;6.22;;
24425;SDS011;12611;44.446;26.000;2022-08-21T03:24:54;12.02;;;6.38;;
24425;SDS011;12611;44.446;26.000;2022-08-21T03:27:23;11.07;;;6.15;;
24425;SDS011;12611;44.446;26.000;2022-08-21T03:29:55;11.00;;;6.78;;
24425;SDS011;12611;44.446;26.000;2022-08-21T03:32:24;10.75;;;6.35;;
24425;SDS011;12611;44.446;26.000;2022-08-21T03:34:55;9.23;;;6.05;;
24425;SDS011;12611;44.446;26.000;2022-08-21T03:37:24;10.35;;;6.47;;
24425;SDS011;12611;44.446;26.000;2022-08-21T03:39:52;11.70;;;7.15;;
24425;SDS011;12611;44.446;26.000;2022-08-21T03:42:21;11.18;;;6.90;;
24425;SDS011;12611;44.446;26.000;2022-08-21T03:44:50;11.43;;;6.40;;
24425;SDS011;12611;44.446;26.000;2022-08-21T03:47:18;12.98;;;6.40;;
24425;SDS011;12611;44.446;26.000;2022-08-21T03:49:49;12.50;;;6.65;;
24425;SDS011;12611;44.446;26.000;2022-08-21T03:52:18;12.20;;;7.60;;
24425;SDS011;12611;44.446;26.000;2022-08-21T03:54:47;10.93;;;6.40;;
24425;SDS011;12611;44.446;26.000;2022-08-21T03:57:17;11.50;;;6.63;;
24425;SDS011;12611;44.446;26.000;2022-08-21T03:59:45;14.82;;;6.85;;
24425;SDS011;12611;44.446;26.000;2022-08-21T04:02:15;9.23;;;6.68;;
24425;SDS011;12611;44.446;26.000;2022-08-21T04:04:45;14.60;;;7.65;;
24425;SDS011;12611;44.446;26.000;2022-08-21T04:07:15;12.68;;;7.05;;
24425;SDS011;12611;44.446;26.000;2022-08-21T04:09:44;17.58;;;7.30;;
24425;SDS011;12611;44.446;26.000;2022-08-21T04:12:12;13.93;;;6.45;;
24425;SDS011;12611;44.446;26.000;2022-08-21T04:14:41;11.63;;;7.25;;
24425;SDS011;12611;44.446;26.000;2022-08-21T04:17:09;10.88;;;7.10;;
24425;SDS011;12611;44.446;26.000;2022-08-21T04:19:38;12.05;;;6.68;;
24425;SDS011;12611;44.446;26.000;2022-08-21T04:22:06;11.82;;;6.68;;
24425;SDS011;12611;44.446;26.000;2022-08-21T04:24:36;13.77;;;7.82;;
24425;SDS011;12611;44.446;26.000;2022-08-21T04:27:05;11.80;;;6.85;;
24425;SDS011;12611;44.446;26.000;2022-08-21T04:29:33;11.35;;;6.60;;
24425;SDS011;12611;44.446;26.000;2022-08-21T04:32:05;15.48;;;6.90;;
24425;SDS011;12611;44.446;26.000;2022-08-21T04:34:34;10.85;;;6.72;;
24425;SDS011;12611;44.446;26.000;2022-08-21T04:37:02;16.50;;;7.78;;
24425;SDS011;12611;44.446;26.000;2022-08-21T04:39:31;12.77;;;7.55;;
24425;SDS011;12611;44.446;26.000;2022-08-21T04:42:01;11.88;;;7.50;;
24425;SDS011;12611;44.446;26.000;2022-08-21T04:44:29;11.93;;;6.72;;
24425;SDS011;12611;44.446;26.000;2022-08-21T04:46:59;14.27;;;7.47;;
24425;SDS011;12611;44.446;26.000;2022-08-21T04:49:28;12.80;;;6.90;;
24425;SDS011;12611;44.446;26.000;2022-08-21T04:51:57;10.57;;;6.85;;
24425;SDS011;12611;44.446;26.000;2022-08-21T04:54:26;9.80;;;6.53;;
24425;SDS011;12611;44.446;26.000;2022-08-21T04:56:56;18.45;;;7.50;;
24425;SDS011;12611;44.446;26.000;2022-08-21T04:59:32;14.65;;;7.38;;
24425;SDS011;12611;44.446;26.000;2022-08-21T05:02:04;9.05;;;6.82;;
24425;SDS011;12611;44.446;26.000;2022-08-21T05:04:34;10.30;;;7.10;;
24425;SDS011;12611;44.446;26.000;2022-08-21T05:07:07;11.63;;;7.03;;
24425;SDS011;12611;44.446;26.000;2022-08-21T05:09:40;12.60;;;6.53;;
24425;SDS011;12611;44.446;26.000;2022-08-21T05:12:10;9.80;;;6.57;;
24425;SDS011;12611;44.446;26.000;2022-08-21T05:14:41;10.75;;;6.50;;
24425;SDS011;12611;44.446;26.000;2022-08-21T05:17:11;14.68;;;6.88;;
24425;SDS011;12611;44.446;26.000;2022-08-21T05:19:40;11.30;;;6.90;;
24425;SDS011;12611;44.446;26.000;2022-08-21T05:22:08;8.02;;;5.38;;
24425;SDS011;12611;44.446;26.000;2022-08-21T05:24:36;9.20;;;5.30;;
24425;SDS011;12611;44.446;26.000;2022-08-21T05:27:05;11.02;;;5.57;;
24425;SDS011;12611;44.446;26.000;2022-08-21T05:29:33;9.52;;;6.57;;
24425;SDS011;12611;44.446;26.000;2022-08-21T05:32:09;7.97;;;5.75;;
24425;SDS011;12611;44.446;26.000;2022-08-21T05:34:38;11.27;;;6.50;;
24425;SDS011;12611;44.446;26.000;2022-08-21T05:37:07;10.63;;;5.60;;
24425;SDS011;12611;44.446;26.000;2022-08-21T05:39:39;8.80;;;6.05;;
24425;SDS011;12611;44.446;26.000;2022-08-21T05:42:28;9.02;;;5.60;;
24425;SDS011;12611;44.446;26.000;2022-08-21T05:45:02;14.18;;;6.10;;
24425;SDS011;12611;44.446;26.000;2022-08-21T05:47:33;9.85;;;6.10;;
24425;SDS011;12611;44.446;26.000;2022-08-21T05:50:01;8.75;;;5.70;;
24425;SDS011;12611;44.446;26.000;2022-08-21T05:52:31;8.30;;;5.53;;
24425;SDS011;12611;44.446;26.000;2022-08-21T05:55:00;10.02;;;5.43;;
24425;SDS011;12611;44.446;26.000;2022-08-21T05:57:32;11.48;;;5.55;;
24425;SDS011;12611;44.446;26.000;2022-08-21T06:00:00;11.98;;;6.00;;
24425;SDS011;12611;44.446;26.000;2022-08-21T06:02:29;7.60;;;5.07;;
24425;SDS011;12611;44.446;26.000;2022-08-21T06:05:02;13.95;;;5.90;;
24425;SDS011;12611;44.446;26.000;2022-08-21T06:07:35;11.73;;;5.95;;
24425;SDS011;12611;44.446;26.000;2022-08-21T06:10:03;11.68;;;6.13;;
24425;SDS011;12611;44.446;26.000;2022-08-21T06:12:36;11.75;;;5.68;;
24425;SDS011;12611;44.446;26.000;2022-08-21T06:15:07;7.05;;;5.00;;
24425;SDS011;12611;44.446;26.000;2022-08-21T06:17:36;9.50;;;5.43;;
24425;SDS011;12611;44.446;26.000;2022-08-21T06:20:07;8.23;;;5.63;;
24425;SDS011;12611;44.446;26.000;2022-08-21T06:22:36;12.25;;;5.85;;
24425;SDS011;12611;44.446;26.000;2022-08-21T06:25:05;7.43;;;4.95;;
24425;SDS011;12611;44.446;26.000;2022-08-21T06:27:34;9.60;;;5.05;;
24425;SDS011;12611;44.446;26.000;2022-08-21T06:30:03;8.00;;;5.72;;
24425;SDS011;12611;44.446;26.000;2022-08-21T06:32:34;8.70;;;5.53;;
24425;SDS011;12611;44.446;26.000;2022-08-21T06:35:04;10.32;;;5.45;;
24425;SDS011;12611;44.446;26.000;2022-08-21T06:37:34;9.73;;;5.50;;
24425;SDS011;12611;44.446;26.000;2022-08-21T06:40:03;8.43;;;5.35;;
24425;SDS011;12611;44.446;26.000;2022-08-21T06:42:38;9.00;;;4.75;;
24425;SDS011;12611;44.446;26.000;2022-08-21T06:45:08;7.75;;;5.22;;
24425;SDS011;12611;44.446;26.000;2022-08-21T06:47:37;7.15;;;4.72;;
24425;SDS011;12611;44.446;26.000;2022-08-21T06:50:08;9.02;;;4.97;;
24425;SDS011;12611;44.446;26.000;2022-08-21T06:52:38;12.65;;;5.28;;
24425;SDS011;12611;44.446;26.000;2022-08-21T06:55:07;10.25;;;5.40;;
24425;SDS011;12611;44.446;26.000;2022-08-21T06:57:46;7.35;;;4.78;;
24425;SDS011;12611;44.446;26.000;2022-08-21T07:00:18;6.97;;;4.93;;
24425;SDS011;12611;44.446;26.000;2022-08-21T07:02:47;10.20;;;4.80;;
24425;SDS011;12611;44.446;26.000;2022-08-21T07:05:17;9.65;;;5.05;;
24425;SDS011;12611;44.446;26.000;2022-08-21T07:07:46;7.05;;;4.90;;
24425;SDS011;12611;44.446;26.000;2022-08-21T07:10:14;10.40;;;4.10;;
24425;SDS011;12611;44.446;26.000;2022-08-21T07:12:47;7.63;;;4.05;;
24425;SDS011;12611;44.446;26.000;2022-08-21T07:15:26;9.05;;;4.60;;
24425;SDS011;12611;44.446;26.000;2022-08-21T07:17:55;8.48;;;5.00;;
24425;SDS011;12611;44.446;26.000;2022-08-21T07:20:26;14.95;;;4.90;;
24425;SDS011;12611;44.446;26.000;2022-08-21T07:22:55;5.80;;;4.03;;
24425;SDS011;12611;44.446;26.000;2022-08-21T07:25:26;5.72;;;4.05;;
24425;SDS011;12611;44.446;26.000;2022-08-21T07:27:55;9.60;;;4.28;;
24425;SDS011;12611;44.446;26.000;2022-08-21T07:30:23;8.55;;;4.60;;
24425;SDS011;12611;44.446;26.000;2022-08-21T07:32:52;5.95;;;4.40;;
24425;SDS011;12611;44.446;26.000;2022-08-21T07:35:21;11.98;;;4.28;;
24425;SDS011;12611;44.446;26.000;2022-08-21T07:37:52;11.98;;;4.80;;
24425;SDS011;12611;44.446;26.000;2022-08-21T07:40:21;7.95;;;4.32;;
24425;SDS011;12611;44.446;26.000;2022-08-21T07:42:49;10.43;;;4.70;;
24425;SDS011;12611;44.446;26.000;2022-08-21T07:45:19;9.95;;;4.85;;
24425;SDS011;12611;44.446;26.000;2022-08-21T07:47:50;7.28;;;4.30;;
24425;SDS011;12611;44.446;26.000;2022-08-21T07:50:23;7.55;;;3.85;;
24425;SDS011;12611;44.446;26.000;2022-08-21T07:52:53;11.18;;;4.30;;
24425;SDS011;12611;44.446;26.000;2022-08-21T07:55:22;7.22;;;3.80;;
24425;SDS011;12611;44.446;26.000;2022-08-21T07:57:51;8.45;;;4.28;;
24425;SDS011;12611;44.446;26.000;2022-08-21T08:00:20;7.45;;;4.70;;
24425;SDS011;12611;44.446;26.000;2022-08-21T08:02:55;9.68;;;4.53;;
24425;SDS011;12611;44.446;26.000;2022-08-21T08:05:26;6.32;;;4.00;;
24425;SDS011;12611;44.446;26.000;2022-08-21T08:07:57;6.97;;;4.00;;
24425;SDS011;12611;44.446;26.000;2022-08-21T08:10:26;5.53;;;4.20;;
24425;SDS011;12611;44.446;26.000;2022-08-21T08:12:55;8.70;;;3.97;;
24425;SDS011;12611;44.446;26.000;2022-08-21T08:15:24;9.07;;;4.25;;
24425;SDS011;12611;44.446;26.000;2022-08-21T08:17:54;7.18;;;3.92;;
24425;SDS011;12611;44.446;26.000;2022-08-21T08:20:24;12.18;;;4.15;;
24425;SDS011;12611;44.446;26.000;2022-08-21T08:22:54;6.90;;;3.80;;
24425;SDS011;12611;44.446;26.000;2022-08-21T08:25:24;6.65;;;3.85;;
24425;SDS011;12611;44.446;26.000;2022-08-21T08:28:02;12.40;;;4.20;;
24425;SDS011;12611;44.446;26.000;2022-08-21T08:30:43;8.30;;;4.18;;
24425;SDS011;12611;44.446;26.000;2022-08-21T08:33:12;8.00;;;3.95;;
24425;SDS011;12611;44.446;26.000;2022-08-21T08:35:42;8.45;;;3.53;;
24425;SDS011;12611;44.446;26.000;2022-08-21T08:38:13;6.47;;;3.38;;
24425;SDS011;12611;44.446;26.000;2022-08-21T08:40:50;7.18;;;3.78;;
24425;SDS011;12611;44.446;26.000;2022-08-21T08:43:26;5.75;;;3.28;;
24425;SDS011;12611;44.446;26.000;2022-08-21T08:45:56;7.25;;;3.22;;
24425;SDS011;12611;44.446;26.000;2022-08-21T08:48:36;7.72;;;3.53;;
24425;SDS011;12611;44.446;26.000;2022-08-21T08:51:21;7.90;;;3.25;;
24425;SDS011;12611;44.446;26.000;2022-08-21T08:53:55;7.85;;;3.30;;
24425;SDS011;12611;44.446;26.000;2022-08-21T08:56:33;7.28;;;3.55;;
24425;SDS011;12611;44.446;26.000;2022-08-21T08:59:05;8.35;;;3.80;;
24425;SDS011;12611;44.446;26.000;2022-08-21T09:01:37;12.52;;;3.92;;
24425;SDS011;12611;44.446;26.000;2022-08-21T09:04:06;6.97;;;3.88;;
24425;SDS011;12611;44.446;26.000;2022-08-21T09:06:37;5.90;;;3.63;;
24425;SDS011;12611;44.446;26.000;2022-08-21T09:09:22;10.15;;;3.55;;
24425;SDS011;12611;44.446;26.000;2022-08-21T09:12:02;7.40;;;3.03;;
24425;SDS011;12611;44.446;26.000;2022-08-21T09:14:40;6.00;;;3.20;;
24425;SDS011;12611;44.446;26.000;2022-08-21T09:17:23;5.85;;;3.20;;
24425;SDS011;12611;44.446;26.000;2022-08-21T09:20:08;12.73;;;3.88;;
24425;SDS011;12611;44.446;26.000;2022-08-21T09:22:47;10.68;;;3.58;;
24425;SDS011;12611;44.446;26.000;2022-08-21T09:25:26;9.63;;;3.30;;
24425;SDS011;12611;44.446;26.000;2022-08-21T09:28:00;7.40;;;3.13;;
24425;SDS011;12611;44.446;26.000;2022-08-21T09:30:29;8.10;;;3.03;;
24425;SDS011;12611;44.446;26.000;2022-08-21T09:32:59;12.75;;;3.95;;
24425;SDS011;12611;44.446;26.000;2022-08-21T09:35:29;7.65;;;3.53;;
24425;SDS011;12611;44.446;26.000;2022-08-21T09:38:00;7.47;;;3.85;;
24425;SDS011;12611;44.446;26.000;2022-08-21T09:40:33;7.70;;;3.60;;
24425;SDS011;12611;44.446;26.000;2022-08-21T09:43:15;7.25;;;3.20;;
24425;SDS011;12611;44.446;26.000;2022-08-21T09:45:48;7.60;;;3.35;;
24425;SDS011;12611;44.446;26.000;2022-08-21T09:48:28;8.45;;;4.10;;
24425;SDS011;12611;44.446;26.000;2022-08-21T09:51:06;10.38;;;3.95;;
24425;SDS011;12611;44.446;26.000;2022-08-21T09:53:37;7.03;;;3.30;;
24425;SDS011;12611;44.446;26.000;2022-08-21T09:56:16;6.40;;;3.60;;
24425;SDS011;12611;44.446;26.000;2022-08-21T09:59:15;6.40;;;3.30;;
24425;SDS011;12611;44.446;26.000;2022-08-21T10:01:48;7.40;;;3.25;;
24425;SDS011;12611;44.446;26.000;2022-08-21T10:04:22;8.63;;;3.75;;
24425;SDS011;12611;44.446;26.000;2022-08-21T10:06:52;7.13;;;3.30;;
24425;SDS011;12611;44.446;26.000;2022-08-21T10:09:23;6.78;;;3.30;;
24425;SDS011;12611;44.446;26.000;2022-08-21T10:11:57;7.53;;;3.03;;
24425;SDS011;12611;44.446;26.000;2022-08-21T10:14:41;5.72;;;3.55;;
24425;SDS011;12611;44.446;26.000;2022-08-21T10:17:21;7.80;;;4.18;;
24425;SDS011;12611;44.446;26.000;2022-08-21T10:19:59;7.72;;;3.58;;
24425;SDS011;12611;44.446;26.000;2022-08-21T10:22:37;7.18;;;3.45;;
24425;SDS011;12611;44.446;26.000;2022-08-21T10:25:22;7.03;;;3.58;;
24425;SDS011;12611;44.446;26.000;2022-08-21T10:28:00;8.60;;;3.33;;
24425;SDS011;12611;44.446;26.000;2022-08-21T10:30:41;7.45;;;3.30;;
24425;SDS011;12611;44.446;26.000;2022-08-21T10:33:20;6.68;;;3.03;;
24425;SDS011;12611;44.446;26.000;2022-08-21T10:35:58;7.82;;;3.08;;
24425;SDS011;12611;44.446;26.000;2022-08-21T10:38:43;8.30;;;3.20;;
24425;SDS011;12611;44.446;26.000;2022-08-21T10:41:47;7.05;;;3.22;;
24425;SDS011;12611;44.446;26.000;2022-08-21T10:44:37;7.22;;;3.17;;
24425;SDS011;12611;44.446;26.000;2022-08-21T10:47:13;9.95;;;5.25;;
24425;SDS011;12611;44.446;26.000;2022-08-21T10:49:49;15.20;;;5.63;;
24425;SDS011;12611;44.446;26.000;2022-08-21T10:52:31;6.07;;;3.75;;
24425;SDS011;12611;44.446;26.000;2022-08-21T10:55:17;5.30;;;3.60;;
24425;SDS011;12611;44.446;26.000;2022-08-21T10:57:50;5.38;;;3.28;;
24425;SDS011;12611;44.446;26.000;2022-08-21T11:00:22;11.13;;;3.67;;
24425;SDS011;12611;44.446;26.000;2022-08-21T11:02:57;6.55;;;3.35;;
24425;SDS011;12611;44.446;26.000;2022-08-21T11:05:30;12.95;;;3.92;;
24425;SDS011;12611;44.446;26.000;2022-08-21T11:08:02;17.15;;;4.30;;
24425;SDS011;12611;44.446;26.000;2022-08-21T11:10:37;7.85;;;3.40;;
24425;SDS011;12611;44.446;26.000;2022-08-21T11:13:26;6.13;;;3.53;;
24425;SDS011;12611;44.446;26.000;2022-08-21T11:16:02;8.15;;;3.78;;
24425;SDS011;12611;44.446;26.000;2022-08-21T11:18:38;7.32;;;3.60;;
24425;SDS011;12611;44.446;26.000;2022-08-21T11:21:15;4.95;;;3.30;;
24425;SDS011;12611;44.446;26.000;2022-08-21T11:23:57;6.20;;;3.15;;
24425;SDS011;12611;44.446;26.000;2022-08-21T11:26:34;9.23;;;4.10;;
24425;SDS011;12611;44.446;26.000;2022-08-21T11:29:09;12.73;;;7.45;;
24425;SDS011;12611;44.446;26.000;2022-08-21T11:31:47;8.38;;;4.28;;
24425;SDS011;12611;44.446;26.000;2022-08-21T11:34:34;12.70;;;5.50;;
24425;SDS011;12611;44.446;26.000;2022-08-21T11:37:16;8.57;;;4.13;;
24425;SDS011;12611;44.446;26.000;2022-08-21T11:39:52;10.57;;;5.20;;
24425;SDS011;12611;44.446;26.000;2022-08-21T11:42:33;11.05;;;3.90;;
24425;SDS011;12611;44.446;26.000;2022-08-21T11:45:12;9.90;;;3.47;;
24425;SDS011;12611;44.446;26.000;2022-08-21T11:47:56;5.22;;;3.30;;
24425;SDS011;12611;44.446;26.000;2022-08-21T11:50:31;6.72;;;4.07;;
24425;SDS011;12611;44.446;26.000;2022-08-21T11:53:05;12.35;;;6.65;;
24425;SDS011;12611;44.446;26.000;2022-08-21T11:55:39;9.57;;;5.55;;
24425;SDS011;12611;44.446;26.000;2022-08-21T11:58:14;10.25;;;4.00;;
24425;SDS011;12611;44.446;26.000;2022-08-21T12:00:48;7.68;;;3.35;;
24425;SDS011;12611;44.446;26.000;2022-08-21T12:03:22;9.35;;;3.10;;
24425;SDS011;12611;44.446;26.000;2022-08-21T12:05:57;7.13;;;2.95;;
24425;SDS011;12611;44.446;26.000;2022-08-21T12:08:30;9.90;;;3.28;;
24425;SDS011;12611;44.446;26.000;2022-08-21T12:11:03;4.25;;;3.10;;
24425;SDS011;12611;44.446;26.000;2022-08-21T12:13:36;7.22;;;3.58;;
24425;SDS011;12611;44.446;26.000;2022-08-21T12:16:08;6.05;;;3.00;;
24425;SDS011;12611;44.446;26.000;2022-08-21T12:18:42;5.20;;;2.97;;
24425;SDS011;12611;44.446;26.000;2022-08-21T12:21:19;7.28;;;3.22;;
24425;SDS011;12611;44.446;26.000;2022-08-21T12:23:59;4.60;;;2.85;;
24425;SDS011;12611;44.446;26.000;2022-08-21T12:26:30;6.50;;;3.30;;
24425;SDS011;12611;44.446;26.000;2022-08-21T12:29:10;6.60;;;3.38;;
24425;SDS011;12611;44.446;26.000;2022-08-21T12:31:55;9.10;;;4.90;;
24425;SDS011;12611;44.446;26.000;2022-08-21T12:34:33;6.70;;;4.38;;
24425;SDS011;12611;44.446;26.000;2022-08-21T12:37:14;11.63;;;3.97;;
24425;SDS011;12611;44.446;26.000;2022-08-21T12:39:48;6.50;;;3.80;;
24425;SDS011;12611;44.446;26.000;2022-08-21T12:42:22;10.82;;;3.42;;
24425;SDS011;12611;44.446;26.000;2022-08-21T12:44:57;7.47;;;3.33;;
24425;SDS011;12611;44.446;26.000;2022-08-21T12:47:31;6.18;;;3.08;;
24425;SDS011;12611;44.446;26.000;2022-08-21T12:50:03;6.82;;;3.00;;
24425;SDS011;12611;44.446;26.000;2022-08-21T12:52:38;7.93;;;3.47;;
24425;SDS011;12611;44.446;26.000;2022-08-21T12:55:11;9.30;;;3.28;;
24425;SDS011;12611;44.446;26.000;2022-08-21T12:57:42;5.53;;;3.33;;
24425;SDS011;12611;44.446;26.000;2022-08-21T13:00:13;6.50;;;3.38;;
24425;SDS011;12611;44.446;26.000;2022-08-21T13:02:48;7.18;;;3.53;;
24425;SDS011;12611;44.446;26.000;2022-08-21T13:05:20;10.75;;;4.45;;
24425;SDS011;12611;44.446;26.000;2022-08-21T13:07:57;8.73;;;4.57;;
24425;SDS011;12611;44.446;26.000;2022-08-21T13:10:28;9.20;;;4.88;;
24425;SDS011;12611;44.446;26.000;2022-08-21T13:12:59;12.02;;;4.85;;
24425;SDS011;12611;44.446;26.000;2022-08-21T13:15:38;10.13;;;5.05;;
24425;SDS011;12611;44.446;26.000;2022-08-21T13:18:19;10.43;;;4.95;;
24425;SDS011;12611;44.446;26.000;2022-08-21T13:20:49;10.20;;;4.05;;
24425;SDS011;12611;44.446;26.000;2022-08-21T13:23:23;8.25;;;4.20;;
24425;SDS011;12611;44.446;26.000;2022-08-21T13:25:53;7.70;;;4.10;;
24425;SDS011;12611;44.446;26.000;2022-08-21T13:28:22;8.07;;;3.80;;
24425;SDS011;12611;44.446;26.000;2022-08-21T13:30:52;7.93;;;3.60;;
24425;SDS011;12611;44.446;26.000;2022-08-21T13:33:23;7.60;;;3.45;;
24425;SDS011;12611;44.446;26.000;2022-08-21T13:36:05;10.27;;;3.38;;
24425;SDS011;12611;44.446;26.000;2022-08-21T13:38:44;5.50;;;3.30;;
24425;SDS011;12611;44.446;26.000;2022-08-21T13:41:20;10.07;;;3.67;;
24425;SDS011;12611;44.446;26.000;2022-08-21T13:43:56;7.60;;;3.85;;
24425;SDS011;12611;44.446;26.000;2022-08-21T13:46:29;4.55;;;3.33;;
24425;SDS011;12611;44.446;26.000;2022-08-21T13:48:59;12.32;;;3.85;;
24425;SDS011;12611;44.446;26.000;2022-08-21T13:51:32;9.45;;;3.40;;
24425;SDS011;12611;44.446;26.000;2022-08-21T13:56:52;13.40;;;4.88;;
24425;SDS011;12611;44.446;26.000;2022-08-21T13:59:26;10.80;;;4.22;;
24425;SDS011;12611;44.446;26.000;2022-08-21T14:02:08;10.35;;;4.68;;
24425;SDS011;12611;44.446;26.000;2022-08-21T14:04:57;13.57;;;5.53;;
24425;SDS011;12611;44.446;26.000;2022-08-21T14:07:29;7.72;;;5.07;;
24425;SDS011;12611;44.446;26.000;2022-08-21T14:10:11;8.30;;;3.72;;
24425;SDS011;12611;44.446;26.000;2022-08-21T14:12:56;12.90;;;3.80;;
24425;SDS011;12611;44.446;26.000;2022-08-21T14:15:28;9.82;;;3.72;;
24425;SDS011;12611;44.446;26.000;2022-08-21T14:18:13;10.02;;;4.15;;
24425;SDS011;12611;44.446;26.000;2022-08-21T14:20:43;7.95;;;3.85;;
24425;SDS011;12611;44.446;26.000;2022-08-21T14:23:23;7.45;;;3.90;;
24425;SDS011;12611;44.446;26.000;2022-08-21T14:25:54;7.43;;;4.25;;
24425;SDS011;12611;44.446;26.000;2022-08-21T14:28:30;8.60;;;3.88;;
24425;SDS011;12611;44.446;26.000;2022-08-21T14:31:13;10.65;;;4.40;;
24425;SDS011;12611;44.446;26.000;2022-08-21T14:33:56;14.60;;;4.65;;
24425;SDS011;12611;44.446;26.000;2022-08-21T14:36:26;10.27;;;4.20;;
24425;SDS011;12611;44.446;26.000;2022-08-21T14:39:13;14.80;;;3.92;;
24425;SDS011;12611;44.446;26.000;2022-08-21T14:41:48;11.10;;;4.82;;
24425;SDS011;12611;44.446;26.000;2022-08-21T14:44:22;11.05;;;5.63;;
24425;SDS011;12611;44.446;26.000;2022-08-21T14:46:51;12.90;;;5.47;;
24425;SDS011;12611;44.446;26.000;2022-08-21T14:49:23;14.75;;;9.30;;
24425;SDS011;12611;44.446;26.000;2022-08-21T14:51:54;12.68;;;5.75;;
24425;SDS011;12611;44.446;26.000;2022-08-21T14:54:25;14.18;;;5.20;;
24425;SDS011;12611;44.446;26.000;2022-08-21T14:57:00;14.95;;;5.63;;
24425;SDS011;12611;44.446;26.000;2022-08-21T14:59:30;11.93;;;5.03;;
24425;SDS011;12611;44.446;26.000;2022-08-21T15:02:03;10.15;;;5.85;;
24425;SDS011;12611;44.446;26.000;2022-08-21T15:04:32;12.30;;;4.85;;